createdAt,value
2023-02-15T00:02:38.958Z,82.71
2023-02-15T00:06:43.266Z,82.72
2023-02-15T00:10:43.836Z,83.30
2023-02-15T00:14:47.124Z,82.76
2023-02-15T00:18:47.560Z,82.37
2023-02-15T00:22:48.646Z,82.60
2023-02-15T00:26:51.731Z,82.63
2023-02-15T00:30:55.301Z,82.41
2023-02-15T00:34:57.361Z,83.02
2023-02-15T00:38:58.370Z,83.45
2023-02-15T00:42:59.743Z,82.94
2023-02-15T00:47:02.910Z,83.13
2023-02-15T00:51:05.348Z,83.09
2023-02-15T00:55:06.162Z,83.07
2023-02-15T00:59:06.879Z,82.43
2023-02-15T01:03:10.719Z,82.15
2023-02-15T01:07:11.284Z,82.68
2023-02-15T01:11:16.296Z,82.99
2023-02-15T01:15:17.153Z,83.51
2023-02-15T01:19:20.832Z,83.36
2023-02-15T01:23:21.068Z,83.24
2023-02-15T01:27:21.674Z,82.77
2023-02-15T01:31:25.108Z,82.48
2023-02-15T01:35:28.867Z,82.53
2023-02-15T01:39:29.912Z,83.36
2023-02-15T01:43:44.952Z,83.21
2023-02-15T01:47:51.648Z,83.26
2023-02-15T01:51:56.305Z,83.67
2023-02-15T01:56:04.885Z,84.29
2023-02-15T02:00:10.080Z,84.56
2023-02-15T02:04:20.945Z,84.16
2023-02-15T02:08:24.143Z,84.14
2023-02-15T02:12:27.623Z,83.95
2023-02-15T02:16:38.480Z,83.44
2023-02-15T02:21:12.267Z,83.18
2023-02-15T02:25:45.410Z,83.45
2023-02-15T02:30:52.100Z,83.46
2023-02-15T02:35:05.354Z,83.29
2023-02-15T02:39:32.872Z,83.18
2023-02-15T02:43:42.300Z,83.49
2023-02-15T02:47:51.134Z,83.88
2023-02-15T02:52:06.950Z,83.53
2023-02-15T02:56:23.321Z,83.81
2023-02-15T03:00:27.552Z,83.00
2023-02-15T03:04:35.398Z,83.26
2023-02-15T03:08:49.267Z,83.23
2023-02-15T03:12:50.402Z,83.34
2023-02-15T03:16:55.345Z,82.81
2023-02-15T03:20:59.354Z,82.97
2023-02-15T03:25:10.889Z,82.47
2023-02-15T03:29:14.438Z,82.58
2023-02-15T03:33:17.225Z,82.60
2023-02-15T03:37:29.855Z,82.87
2023-02-15T03:41:41.304Z,83.68
2023-02-15T03:45:55.889Z,82.88
2023-02-15T03:50:25.580Z,83.58
2023-02-15T03:54:42.493Z,83.19
2023-02-15T03:58:58.086Z,82.84
2023-02-15T04:03:24.313Z,82.96
2023-02-15T04:07:25.011Z,82.69
2023-02-15T04:11:23.034Z,82.83
2023-02-15T04:15:38.416Z,82.65
2023-02-15T04:19:51.522Z,82.69
2023-02-15T04:24:04.247Z,82.38
2023-02-15T04:28:05.185Z,82.38
2023-02-15T04:32:08.681Z,82.52
2023-02-15T04:36:10.315Z,82.35
2023-02-15T04:40:13.703Z,82.86
2023-02-15T04:44:14.661Z,83.25
2023-02-15T04:48:19.340Z,82.69
2023-02-15T04:52:20.777Z,82.57
2023-02-15T04:56:21.302Z,82.59
2023-02-15T05:00:25.070Z,83.16
2023-02-15T05:04:28.487Z,82.82
2023-02-15T05:08:28.971Z,82.65
2023-02-15T05:12:30.777Z,82.52
2023-02-15T05:16:31.433Z,82.44
2023-02-15T05:20:36.065Z,82.15
2023-02-15T05:24:49.218Z,81.97
2023-02-15T05:28:49.533Z,82.29
2023-02-15T05:32:50.142Z,81.85
2023-02-15T05:36:53.448Z,81.92
2023-02-15T05:40:56.307Z,81.79
2023-02-15T05:44:56.609Z,82.09
2023-02-15T05:48:57.272Z,81.92
2023-02-15T05:53:00.647Z,82.26
2023-02-15T05:57:01.860Z,82.63
2023-02-15T06:01:03.198Z,83.56
2023-02-15T06:05:05.026Z,82.85
2023-02-15T06:09:07.970Z,82.16
2023-02-15T06:13:08.368Z,82.29
2023-02-15T06:17:08.635Z,82.42
2023-02-15T06:21:09.190Z,82.36
2023-02-15T06:25:20.128Z,82.49
2023-02-15T06:29:20.597Z,82.83
2023-02-15T06:33:21.503Z,82.78
2023-02-15T06:37:22.664Z,83.18
2023-02-15T06:41:26.934Z,83.71
2023-02-15T06:45:27.574Z,84.06
2023-02-15T06:49:27.950Z,84.39
2023-02-15T06:53:28.518Z,85.00
2023-02-15T06:57:31.528Z,83.99
2023-02-15T07:01:31.877Z,84.46
2023-02-15T07:05:32.745Z,85.07
2023-02-15T07:09:33.153Z,83.77
2023-02-15T07:13:37.666Z,83.13
2023-02-15T07:17:38.257Z,82.96
2023-02-15T07:21:38.901Z,83.38
2023-02-15T07:25:39.334Z,83.81
2023-02-15T07:29:42.178Z,83.36
2023-02-15T07:33:42.670Z,82.96
2023-02-15T07:37:43.067Z,82.53
2023-02-15T07:41:43.322Z,82.11
2023-02-15T07:45:48.736Z,82.19
2023-02-15T07:49:50.483Z,81.61
2023-02-15T07:53:52.669Z,81.17
2023-02-15T07:57:55.605Z,81.21
2023-02-15T08:01:58.770Z,81.57
2023-02-15T08:06:02.492Z,81.63
2023-02-15T08:10:03.259Z,80.85
2023-02-15T08:14:06.447Z,80.73
2023-02-15T08:18:09.554Z,81.23
2023-02-15T08:22:12.259Z,81.17
2023-02-15T08:26:12.985Z,80.53
2023-02-15T08:30:15.669Z,80.46
2023-02-15T08:34:22.234Z,80.31
2023-02-15T08:38:22.897Z,78.87
2023-02-15T08:42:24.272Z,78.45
2023-02-15T08:46:27.966Z,78.02
2023-02-15T08:50:31.745Z,78.67
2023-02-15T08:54:32.409Z,78.40
2023-02-15T08:58:34.710Z,78.12
2023-02-15T09:02:34.936Z,77.15
2023-02-15T09:06:38.770Z,76.83
2023-02-15T09:10:39.460Z,76.33
2023-02-15T09:14:40.074Z,75.75
2023-02-15T09:18:42.756Z,75.83
2023-02-15T09:22:46.030Z,76.08
2023-02-15T09:26:51.575Z,75.66
2023-02-15T09:30:52.230Z,75.03
2023-02-15T09:34:54.883Z,74.56
2023-02-15T09:39:05.156Z,73.54
2023-02-15T09:43:28.797Z,73.89
2023-02-15T09:48:13.498Z,72.71
2023-02-15T09:52:54.112Z,72.20
2023-02-15T09:57:04.748Z,72.08
2023-02-15T10:01:16.408Z,71.66
2023-02-15T10:05:39.129Z,71.30
2023-02-15T10:10:04.343Z,71.59
2023-02-15T10:14:49.136Z,71.41
2023-02-15T10:19:03.348Z,71.45
2023-02-15T10:23:37.135Z,71.20
2023-02-15T10:27:47.812Z,70.53
2023-02-15T10:31:56.203Z,69.24
2023-02-15T10:36:13.168Z,70.48
2023-02-15T10:40:31.386Z,68.65
2023-02-15T10:44:51.249Z,68.50
2023-02-15T10:49:21.637Z,67.54
2023-02-15T10:53:47.199Z,67.03
2023-02-15T10:58:07.189Z,67.85
2023-02-15T11:02:26.880Z,67.03
2023-02-15T11:06:31.806Z,67.21
2023-02-15T11:10:42.414Z,68.00
2023-02-15T11:14:55.194Z,66.33
2023-02-15T11:19:06.403Z,66.33
2023-02-15T11:23:19.679Z,67.05
2023-02-15T11:27:28.114Z,68.56
2023-02-15T11:31:46.541Z,66.86
2023-02-15T11:35:55.752Z,66.73
2023-02-15T11:39:58.963Z,66.22
2023-02-15T11:44:09.061Z,65.06
2023-02-15T11:48:16.489Z,64.95
2023-02-15T11:52:21.415Z,66.46
2023-02-15T11:56:29.037Z,68.12
2023-02-15T12:00:39.688Z,68.84
2023-02-15T12:04:48.241Z,67.95
2023-02-15T12:08:58.685Z,67.68
2023-02-15T12:13:20.363Z,67.86
2023-02-15T12:17:22.010Z,67.87
2023-02-15T12:21:34.124Z,67.16
2023-02-15T12:25:41.742Z,67.46
2023-02-15T12:29:53.366Z,66.41
2023-02-15T12:33:58.457Z,67.32
2023-02-15T12:38:05.879Z,66.93
2023-02-15T12:42:18.425Z,65.89
2023-02-15T12:46:27.858Z,65.73
2023-02-15T12:50:36.113Z,67.64
2023-02-15T12:54:43.883Z,66.51
2023-02-15T12:58:47.101Z,67.60
2023-02-15T13:02:54.198Z,66.03
2023-02-15T13:06:58.103Z,66.08
2023-02-15T13:11:03.728Z,66.09
2023-02-15T13:15:06.066Z,65.73
2023-02-15T13:19:18.333Z,65.74
2023-02-15T13:23:31.280Z,65.28
2023-02-15T13:27:41.255Z,66.79
2023-02-15T13:31:44.654Z,67.94
2023-02-15T13:36:00.252Z,67.93
2023-02-15T13:40:11.620Z,68.08
2023-02-15T13:44:25.769Z,68.84
2023-02-15T13:48:50.852Z,69.78
2023-02-15T13:53:02.336Z,69.82
2023-02-15T13:57:30.273Z,69.03
2023-02-15T14:01:44.600Z,69.67
2023-02-15T14:06:18.791Z,69.60
2023-02-15T14:10:42.006Z,68.45
2023-02-15T14:15:12.056Z,68.95
2023-02-15T14:19:29.631Z,67.95
2023-02-15T14:23:46.072Z,68.08
2023-02-15T14:28:03.852Z,67.91
2023-02-15T14:32:15.985Z,67.78
2023-02-15T14:36:23.634Z,68.36
2023-02-15T14:40:50.985Z,69.81
2023-02-15T14:45:05.112Z,68.68
2023-02-15T14:49:15.490Z,69.68
2023-02-15T14:53:43.340Z,69.89
2023-02-15T14:57:43.649Z,70.70
2023-02-15T15:01:59.328Z,70.30
2023-02-15T15:06:05.932Z,70.30
2023-02-15T15:10:30.503Z,70.01
2023-02-15T15:14:47.380Z,71.05
2023-02-15T15:18:52.790Z,71.02
2023-02-15T15:22:53.889Z,70.74
2023-02-15T15:27:44.060Z,70.21
2023-02-15T15:31:54.551Z,70.94
2023-02-15T15:36:42.988Z,71.13
2023-02-15T15:41:22.050Z,70.70
2023-02-15T15:46:03.249Z,71.40
2023-02-15T15:50:05.444Z,71.87
2023-02-15T15:54:08.737Z,73.08
2023-02-15T15:58:12.008Z,73.65
2023-02-15T16:02:19.557Z,72.64
2023-02-15T16:06:32.667Z,73.59
2023-02-15T16:10:39.058Z,73.23
2023-02-15T16:14:42.682Z,73.81
2023-02-15T16:18:44.603Z,75.06
2023-02-15T16:22:45.291Z,75.83
2023-02-15T16:27:34.996Z,75.64
2023-02-15T16:31:35.371Z,75.35
2023-02-15T16:35:37.525Z,75.25
2023-02-15T16:39:46.169Z,75.78
2023-02-15T16:43:53.421Z,75.50
2023-02-15T16:48:03.145Z,75.79
2023-02-15T16:52:08.137Z,76.25
2023-02-15T16:56:10.337Z,76.14
2023-02-15T17:00:24.560Z,76.31
2023-02-15T17:04:35.655Z,76.77
2023-02-15T17:08:45.283Z,77.10
2023-02-15T17:12:51.702Z,77.00
2023-02-15T17:17:05.152Z,77.26
2023-02-15T17:21:16.266Z,78.18
2023-02-15T17:25:27.834Z,77.57
2023-02-15T17:29:38.433Z,77.65
2023-02-15T17:33:43.822Z,77.63
2023-02-15T17:37:50.650Z,78.15
2023-02-15T17:41:54.073Z,78.22
2023-02-15T17:45:56.882Z,78.08
2023-02-15T17:50:00.469Z,78.90
2023-02-15T17:54:16.167Z,78.73
2023-02-15T17:58:22.863Z,78.56
2023-02-15T18:02:37.546Z,78.95
2023-02-15T18:06:57.035Z,79.07
2023-02-15T18:11:14.718Z,78.85
2023-02-15T18:15:15.209Z,79.05
2023-02-15T18:19:23.576Z,79.44
2023-02-15T18:23:26.565Z,79.44
2023-02-15T18:27:27.070Z,78.95
2023-02-15T18:31:28.774Z,78.78
2023-02-15T18:35:34.012Z,78.79
2023-02-15T18:39:45.720Z,79.31
2023-02-15T18:43:49.051Z,79.61
2023-02-15T18:47:51.030Z,79.79
2023-02-15T18:51:51.355Z,79.84
2023-02-15T18:55:55.005Z,80.51
2023-02-15T18:59:55.578Z,81.26
2023-02-15T19:03:57.192Z,80.96
2023-02-15T19:07:58.753Z,80.10
2023-02-15T19:12:03.072Z,79.79
2023-02-15T19:16:06.542Z,79.68
2023-02-15T19:20:08.180Z,80.12
2023-02-15T19:24:18.129Z,80.22
2023-02-15T19:28:32.779Z,80.16
2023-02-15T19:32:33.803Z,80.01
2023-02-15T19:36:40.675Z,79.46
2023-02-15T19:40:41.557Z,79.16
2023-02-15T19:44:45.224Z,79.54
2023-02-15T19:48:45.754Z,79.93
2023-02-15T19:52:47.462Z,79.69
2023-02-15T19:56:48.166Z,80.98
2023-02-15T20:00:53.887Z,80.47
2023-02-15T20:04:55.180Z,80.71
2023-02-15T20:09:02.934Z,80.24
2023-02-15T20:13:05.366Z,80.48
2023-02-15T20:17:10.264Z,80.45
2023-02-15T20:21:18.863Z,80.35
2023-02-15T20:25:25.038Z,80.18
2023-02-15T20:29:26.569Z,79.76
2023-02-15T20:33:29.977Z,80.65
2023-02-15T20:37:35.186Z,79.90
2023-02-15T20:41:40.238Z,79.63
2023-02-15T20:45:40.567Z,79.80
2023-02-15T20:49:44.096Z,79.90
2023-02-15T20:53:46.364Z,80.03
2023-02-15T20:57:47.345Z,79.50
2023-02-15T21:01:49.547Z,79.52
2023-02-15T21:05:53.125Z,79.90
2023-02-15T21:09:54.561Z,79.71
2023-02-15T21:13:55.211Z,80.45
2023-02-15T21:17:55.875Z,81.09
2023-02-15T21:22:01.779Z,81.01
2023-02-15T21:26:02.913Z,81.08
2023-02-15T21:30:06.855Z,81.83
2023-02-15T21:34:08.040Z,82.85
2023-02-15T21:38:18.626Z,82.69
2023-02-15T21:42:31.359Z,82.39
2023-02-15T21:46:44.264Z,82.27
2023-02-15T21:50:57.723Z,82.37
2023-02-15T21:55:03.300Z,83.13
2023-02-15T21:59:04.021Z,83.26
2023-02-15T22:03:04.832Z,82.44
2023-02-15T22:07:05.317Z,81.68
2023-02-15T22:11:16.207Z,81.23
2023-02-15T22:15:24.200Z,81.09
2023-02-15T22:19:24.614Z,81.59
2023-02-15T22:23:25.703Z,81.65
2023-02-15T22:27:31.725Z,81.23
2023-02-15T22:31:32.445Z,80.52
2023-02-15T22:35:37.518Z,80.04
2023-02-15T22:39:37.996Z,79.61
2023-02-15T22:43:45.099Z,79.55
2023-02-15T22:47:45.590Z,78.47
2023-02-15T22:51:47.576Z,79.23
2023-02-15T22:55:50.066Z,79.10
2023-02-15T22:59:53.431Z,79.21
2023-02-15T23:03:53.812Z,78.09
2023-02-15T23:07:54.756Z,78.41
2023-02-15T23:11:57.055Z,78.82
2023-02-15T23:16:04.435Z,78.68
2023-02-15T23:20:04.972Z,78.37
2023-02-15T23:24:22.587Z,78.48
2023-02-15T23:28:29.231Z,79.40
2023-02-15T23:32:34.077Z,79.76
2023-02-15T23:36:37.634Z,79.18
2023-02-15T23:40:50.292Z,78.96
2023-02-15T23:44:51.924Z,79.42
2023-02-15T23:48:56.875Z,79.25
2023-02-15T23:52:59.083Z,79.30
2023-02-15T23:57:04.446Z,78.53
